Terminal Aerodrome Forecast
Issued by NWS Jackson, MS

Home | Current Version | Previous Version | Text Only | Print | Product List | Glossary On
Versions: 1 2 3 4 5 6 7 8 9 10 11 12 13 14
000
FTUS44 KMEG 310500
TAFTUP
TAF
KTUP 310530Z 3106/0106 18005KT P6SM VCTS OVC006CB
     FM311500 22011KT P6SM -SHRA SCT015 BKN025
     FM311800 22012KT P6SM VCSH SCT025 BKN035
      TEMPO 3118/3122 3SM -TSRA BKN025CB
     FM010100 18004KT P6SM SCT070 BKN150=

USA.gov is the U.S. government's official web portal to all federal, state and local government web resources and services.